PWSweather.com
Personal Weather Stations
Station Observations
KNCCHINA3
Red Tractor Trail, China Grove, NC 28023

Red Tractor TrailChina Grove, NC 28023

Lat: 35.59751, Lon: -80.60201

Elevation: 800

Station Type: Oregon Scientific WMR 968

http://www.joesweathergarage.com

High Low Average
Temperature 86.4°F30.2°F 68.5°F20.3°F 73.4°F23.0°F
Dew Point 79.2°F26.2°F 68.5°F20.3°F 72.1°F22.3°F
Winds Calm SECalm SE Calm Calm Calm Calm
Wind Gusts -- -- --
Humidity 100% 74% 96%
Pressure 30.00 in1015.90 in 29.85 in1010.80 in -
Precipitation 10.75 in273.10 in - -
Hour Temp Dew Point Humidity Winds Wind Gusts Pressure Precip Precip Rate Daily Precip Total
12:01 AM 73.6°F23.1°C 69.8°F21.0°C 88% Calm Calm -- 29.94 in1013.9 mb 0.00 in0.0 mm 0.00 in0.0 mm 0.00 in0.0 mm
12:06 AM 73.6°F23.1°C 69.8°F21.0°C 88% Calm Calm -- 29.94 in1013.9 mb 0.00 in0.0 mm 0.00 in0.0 mm 0.00 in0.0 mm
12:11 AM 73.6°F23.1°C 69.8°F21.0°C 88% Calm Calm -- 29.94 in1013.9 mb 0.00 in0.0 mm 0.00 in0.0 mm 0.00 in0.0 mm
12:16 AM 73.4°F23.0°C 69.6°F20.9°C 88% Calm Calm -- 29.94 in1013.9 mb 0.00 in0.0 mm 0.00 in0.0 mm 0.00 in0.0 mm
12:21 AM 73.2°F22.9°C 69.8°F21.0°C 89% Calm Calm -- 29.94 in1013.9 mb 0.00 in0.0 mm 0.00 in0.0 mm 0.00 in0.0 mm
12:28 AM 73.2°F22.9°C 70.1°F21.2°C 90% Calm Calm -- 29.94 in1013.9 mb 0.00 in0.0 mm 0.00 in0.0 mm 0.00 in0.0 mm
12:33 AM 73.0°F22.8°C 69.9°F21.1°C 90% Calm Calm -- 29.94 in1013.9 mb 0.00 in0.0 mm 0.00 in0.0 mm 0.00 in0.0 mm
12:38 AM 73.0°F22.8°C 69.9°F21.1°C 90% Calm Calm -- 29.94 in1013.9 mb 0.00 in0.0 mm 0.00 in0.0 mm 0.00 in0.0 mm
12:43 AM 72.9°F22.7°C 70.2°F21.2°C 91% Calm Calm -- 29.94 in1013.9 mb 0.00 in0.0 mm 0.00 in0.0 mm 0.00 in0.0 mm
12:48 AM 72.7°F22.6°C 70.0°F21.1°C 91% Calm Calm -- 29.91 in1012.9 mb 0.00 in0.0 mm 0.00 in0.0 mm 0.00 in0.0 mm
12:53 AM 72.5°F22.5°C 69.8°F21.0°C 91% Calm Calm -- 29.91 in1012.9 mb 0.00 in0.0 mm 0.00 in0.0 mm 0.00 in0.0 mm
12:58 AM 72.3°F22.4°C 69.6°F20.9°C 91% Calm Calm -- 29.91 in1012.9 mb 0.00 in0.0 mm 0.00 in0.0 mm 0.00 in0.0 mm
01:03 AM 72.0°F22.2°C 69.6°F20.9°C 92% Calm Calm -- 29.91 in1012.9 mb 0.00 in0.0 mm 0.00 in0.0 mm 0.00 in0.0 mm
01:08 AM 71.8°F22.1°C 69.4°F20.8°C 92% Calm Calm -- 29.91 in1012.9 mb 0.00 in0.0 mm 0.00 in0.0 mm 0.00 in0.0 mm
01:13 AM 71.6°F22.0°C 69.3°F20.7°C 92% Calm Calm -- 29.91 in1012.9 mb 0.00 in0.0 mm 0.00 in0.0 mm 0.00 in0.0 mm
01:18 AM 71.6°F22.0°C 69.6°F20.9°C 94% Calm Calm -- 29.91 in1012.9 mb 0.00 in0.0 mm 0.00 in0.0 mm 0.00 in0.0 mm
01:23 AM 71.4°F21.9°C 69.4°F20.8°C 94% Calm Calm -- 29.91 in1012.9 mb 0.00 in0.0 mm 0.00 in0.0 mm 0.00 in0.0 mm
01:28 AM 71.4°F21.9°C 69.7°F20.9°C 95% Calm Calm -- 29.91 in1012.9 mb 0.00 in0.0 mm 0.00 in0.0 mm 0.00 in0.0 mm
01:33 AM 71.4°F21.9°C 69.7°F20.9°C 95% Calm Calm -- 29.97 in1014.9 mb 0.00 in0.0 mm 0.00 in0.0 mm 0.00 in0.0 mm
01:39 AM 71.4°F21.9°C 69.7°F20.9°C 95% Calm Calm -- 29.97 in1014.9 mb 0.00 in0.0 mm 0.00 in0.0 mm 0.00 in0.0 mm
01:44 AM 71.2°F21.8°C 69.5°F20.8°C 95% Calm Calm -- 29.97 in1014.9 mb 0.00 in0.0 mm 0.00 in0.0 mm 0.00 in0.0 mm
01:50 AM 71.1°F21.7°C 69.4°F20.8°C 95% Calm Calm -- 29.94 in1013.9 mb 0.00 in0.0 mm 0.00 in0.0 mm 0.00 in0.0 mm
01:55 AM 70.9°F21.6°C 69.2°F20.7°C 95% Calm Calm -- 29.94 in1013.9 mb 0.00 in0.0 mm 0.00 in0.0 mm 0.00 in0.0 mm
02:00 AM 70.9°F21.6°C 69.6°F20.9°C 96% Calm Calm -- 29.94 in1013.9 mb 0.00 in0.0 mm 0.00 in0.0 mm 0.00 in0.0 mm
02:05 AM 70.7°F21.5°C 69.4°F20.8°C 96% Calm Calm -- 29.94 in1013.9 mb 0.00 in0.0 mm 0.00 in0.0 mm 0.00 in0.0 mm
02:10 AM 70.7°F21.5°C 69.4°F20.8°C 96% Calm Calm -- 29.94 in1013.9 mb 0.00 in0.0 mm 0.00 in0.0 mm 0.00 in0.0 mm
02:15 AM 70.7°F21.5°C 69.4°F20.8°C 96% Calm Calm -- 29.94 in1013.9 mb 0.00 in0.0 mm 0.00 in0.0 mm 0.00 in0.0 mm
02:20 AM 70.5°F21.4°C 69.2°F20.7°C 96% Calm Calm -- 29.94 in1013.9 mb 0.00 in0.0 mm 0.00 in0.0 mm 0.00 in0.0 mm
02:25 AM 70.5°F21.4°C 69.5°F20.8°C 97% Calm Calm -- 29.94 in1013.9 mb 0.00 in0.0 mm 0.00 in0.0 mm 0.00 in0.0 mm
02:30 AM 70.5°F21.4°C 69.5°F20.8°C 97% Calm Calm -- 29.94 in1013.9 mb 0.00 in0.0 mm 0.00 in0.0 mm 0.00 in0.0 mm
02:35 AM 70.3°F21.3°C 69.3°F20.7°C 97% Calm Calm -- 29.94 in1013.9 mb 0.00 in0.0 mm 0.00 in0.0 mm 0.00 in0.0 mm
02:40 AM 70.3°F21.3°C 69.3°F20.7°C 97% Calm Calm -- 29.94 in1013.9 mb 0.00 in0.0 mm 0.00 in0.0 mm 0.00 in0.0 mm
02:45 AM 70.3°F21.3°C 69.3°F20.7°C 97% Calm Calm -- 29.94 in1013.9 mb 0.00 in0.0 mm 0.00 in0.0 mm 0.00 in0.0 mm
02:50 AM 70.2°F21.2°C 69.6°F20.9°C 98% Calm Calm -- 29.94 in1013.9 mb 0.00 in0.0 mm 0.00 in0.0 mm 0.00 in0.0 mm
02:55 AM 70.2°F21.2°C 69.6°F20.9°C 98% Calm Calm -- 29.94 in1013.9 mb 0.00 in0.0 mm 0.00 in0.0 mm 0.00 in0.0 mm
03:00 AM 70.2°F21.2°C 69.6°F20.9°C 98% Calm Calm -- 29.94 in1013.9 mb 0.00 in0.0 mm 0.00 in0.0 mm 0.00 in0.0 mm
03:05 AM 70.0°F21.1°C 69.4°F20.8°C 98% Calm Calm -- 29.94 in1013.9 mb 0.00 in0.0 mm 0.00 in0.0 mm 0.00 in0.0 mm
03:11 AM 70.0°F21.1°C 69.4°F20.8°C 98% Calm Calm -- 29.94 in1013.9 mb 0.00 in0.0 mm 0.00 in0.0 mm 0.00 in0.0 mm
03:16 AM 69.8°F21.0°C 69.5°F20.8°C 99% Calm Calm -- 29.94 in1013.9 mb 0.00 in0.0 mm 0.00 in0.0 mm 0.00 in0.0 mm
03:21 AM 69.8°F21.0°C 69.5°F20.8°C 99% Calm Calm -- 29.94 in1013.9 mb 0.00 in0.0 mm 0.00 in0.0 mm 0.00 in0.0 mm
03:26 AM 69.6°F20.9°C 69.6°F20.9°C 100% Calm Calm -- 29.94 in1013.9 mb 0.00 in0.0 mm 0.00 in0.0 mm 0.00 in0.0 mm
03:31 AM 69.6°F20.9°C 69.6°F20.9°C 100% Calm Calm -- 29.94 in1013.9 mb 0.00 in0.0 mm 0.00 in0.0 mm 0.00 in0.0 mm
03:36 AM 69.6°F20.9°C 69.6°F20.9°C 100% Calm Calm -- 29.94 in1013.9 mb 0.00 in0.0 mm 0.00 in0.0 mm 0.00 in0.0 mm
03:42 AM 69.8°F21.0°C 69.8°F21.0°C 100% Calm Calm -- 29.94 in1013.9 mb 0.00 in0.0 mm 0.00 in0.0 mm 0.00 in0.0 mm
03:47 AM 69.8°F21.0°C 69.8°F21.0°C 100% Calm Calm -- 29.94 in1013.9 mb 0.00 in0.0 mm 0.00 in0.0 mm 0.00 in0.0 mm
03:53 AM 69.8°F21.0°C 69.8°F21.0°C 100% Calm Calm -- 29.94 in1013.9 mb 0.00 in0.0 mm 0.00 in0.0 mm 0.00 in0.0 mm
03:58 AM 69.8°F21.0°C 69.8°F21.0°C 100% Calm Calm -- 29.94 in1013.9 mb 0.00 in0.0 mm 0.00 in0.0 mm 0.00 in0.0 mm
04:03 AM 69.8°F21.0°C 69.8°F21.0°C 100% Calm Calm -- 29.94 in1013.9 mb 0.00 in0.0 mm 0.00 in0.0 mm 0.00 in0.0 mm
04:08 AM 69.6°F20.9°C 69.6°F20.9°C 100% Calm Calm -- 29.94 in1013.9 mb 0.00 in0.0 mm 0.00 in0.0 mm 0.00 in0.0 mm
04:13 AM 69.6°F20.9°C 69.6°F20.9°C 100% Calm Calm -- 29.94 in1013.9 mb 0.00 in0.0 mm 0.00 in0.0 mm 0.00 in0.0 mm
04:18 AM 69.6°F20.9°C 69.6°F20.9°C 100% Calm Calm -- 29.94 in1013.9 mb 0.00 in0.0 mm 0.00 in0.0 mm 0.00 in0.0 mm
04:23 AM 69.6°F20.9°C 69.6°F20.9°C 100% Calm Calm -- 29.94 in1013.9 mb 0.00 in0.0 mm 0.00 in0.0 mm 0.00 in0.0 mm
04:28 AM 69.8°F21.0°C 69.8°F21.0°C 100% Calm Calm -- 29.94 in1013.9 mb 0.00 in0.0 mm 0.00 in0.0 mm 0.00 in0.0 mm
04:33 AM 69.8°F21.0°C 69.8°F21.0°C 100% Calm Calm -- 29.94 in1013.9 mb 0.00 in0.0 mm 0.00 in0.0 mm 0.00 in0.0 mm
04:38 AM 70.0°F21.1°C 70.0°F21.1°C 100% Calm Calm -- 29.94 in1013.9 mb 0.00 in0.0 mm 0.00 in0.0 mm 0.00 in0.0 mm
04:43 AM 70.0°F21.1°C 70.0°F21.1°C 100% Calm Calm -- 29.94 in1013.9 mb 0.00 in0.0 mm 0.00 in0.0 mm 0.00 in0.0 mm
04:48 AM 70.0°F21.1°C 70.0°F21.1°C 100% Calm Calm -- 29.94 in1013.9 mb 0.00 in0.0 mm 0.00 in0.0 mm 0.00 in0.0 mm
04:54 AM 70.0°F21.1°C 70.0°F21.1°C 100% Calm Calm -- 29.94 in1013.9 mb 0.00 in0.0 mm 0.00 in0.0 mm 0.00 in0.0 mm
04:59 AM 70.2°F21.2°C 70.2°F21.2°C 100% Calm Calm -- 29.94 in1013.9 mb 0.00 in0.0 mm 0.00 in0.0 mm 0.00 in0.0 mm
05:04 AM 70.2°F21.2°C 70.2°F21.2°C 100% Calm Calm -- 29.94 in1013.9 mb 0.00 in0.0 mm 0.00 in0.0 mm 0.00 in0.0 mm
05:09 AM 70.2°F21.2°C 70.2°F21.2°C 100% Calm Calm -- 29.94 in1013.9 mb 0.00 in0.0 mm 0.00 in0.0 mm 0.00 in0.0 mm
05:14 AM 70.2°F21.2°C 70.2°F21.2°C 100% Calm Calm -- 29.94 in1013.9 mb 0.00 in0.0 mm 0.00 in0.0 mm 0.00 in0.0 mm
05:19 AM 70.2°F21.2°C 70.2°F21.2°C 100% Calm Calm -- 29.94 in1013.9 mb 0.00 in0.0 mm 0.00 in0.0 mm 0.00 in0.0 mm
05:23 AM 70.2°F21.2°C 70.2°F21.2°C 100% Calm Calm -- 29.94 in1013.9 mb 0.00 in0.0 mm 0.00 in0.0 mm 0.00 in0.0 mm
05:28 AM 70.2°F21.2°C 70.2°F21.2°C 100% Calm Calm -- 29.94 in1013.9 mb 0.00 in0.0 mm 0.00 in0.0 mm 0.00 in0.0 mm
05:36 AM 70.2°F21.2°C 70.2°F21.2°C 100% Calm Calm -- 29.94 in1013.9 mb 0.00 in0.0 mm 0.00 in0.0 mm 0.00 in0.0 mm
05:41 AM 70.2°F21.2°C 70.2°F21.2°C 100% Calm Calm -- 29.94 in1013.9 mb 0.00 in0.0 mm 0.00 in0.0 mm 0.00 in0.0 mm
05:47 AM 70.2°F21.2°C 70.2°F21.2°C 100% Calm Calm -- 29.94 in1013.9 mb 0.00 in0.0 mm 0.00 in0.0 mm 0.00 in0.0 mm
05:52 AM 70.2°F21.2°C 70.2°F21.2°C 100% Calm Calm -- 29.94 in1013.9 mb 0.00 in0.0 mm 0.00 in0.0 mm 0.00 in0.0 mm
05:57 AM 70.2°F21.2°C 70.2°F21.2°C 100% Calm Calm -- 29.94 in1013.9 mb 0.00 in0.0 mm 0.00 in0.0 mm 0.00 in0.0 mm
06:02 AM 70.3°F21.3°C 70.3°F21.3°C 100% Calm Calm -- 29.91 in1012.9 mb 0.00 in0.0 mm 0.00 in0.0 mm 0.00 in0.0 mm
06:07 AM 70.3°F21.3°C 70.3°F21.3°C 100% Calm Calm -- 29.91 in1012.9 mb 0.00 in0.0 mm 0.00 in0.0 mm 0.00 in0.0 mm
06:12 AM 70.3°F21.3°C 70.3°F21.3°C 100% Calm Calm -- 29.91 in1012.9 mb 0.00 in0.0 mm 0.00 in0.0 mm 0.00 in0.0 mm
06:18 AM 70.3°F21.3°C 70.3°F21.3°C 100% Calm Calm -- 29.91 in1012.9 mb 0.00 in0.0 mm 0.00 in0.0 mm 0.00 in0.0 mm
06:23 AM 70.3°F21.3°C 70.3°F21.3°C 100% Calm Calm -- 29.91 in1012.9 mb 0.00 in0.0 mm 0.00 in0.0 mm 0.00 in0.0 mm
06:28 AM 70.5°F21.4°C 70.5°F21.4°C 100% Calm Calm -- 29.91 in1012.9 mb 0.00 in0.0 mm 0.00 in0.0 mm 0.00 in0.0 mm
06:33 AM 70.5°F21.4°C 70.5°F21.4°C 100% Calm Calm -- 29.91 in1012.9 mb 0.00 in0.0 mm 0.00 in0.0 mm 0.00 in0.0 mm
06:38 AM 70.5°F21.4°C 70.5°F21.4°C 100% Calm Calm -- 29.91 in1012.9 mb 0.00 in0.0 mm 0.00 in0.0 mm 0.00 in0.0 mm
06:43 AM 70.5°F21.4°C 70.5°F21.4°C 100% Calm Calm -- 29.91 in1012.9 mb 0.00 in0.0 mm 0.00 in0.0 mm 0.00 in0.0 mm
06:48 AM 70.5°F21.4°C 70.5°F21.4°C 100% Calm Calm -- 29.91 in1012.9 mb 0.00 in0.0 mm 0.00 in0.0 mm 0.00 in0.0 mm
06:53 AM 70.7°F21.5°C 70.7°F21.5°C 100% Calm Calm -- 29.91 in1012.9 mb 0.00 in0.0 mm 0.00 in0.0 mm 0.00 in0.0 mm
06:58 AM 70.7°F21.5°C 70.7°F21.5°C 100% Calm Calm -- 29.91 in1012.9 mb 0.00 in0.0 mm 0.00 in0.0 mm 0.00 in0.0 mm
07:03 AM 70.7°F21.5°C 70.7°F21.5°C 100% Calm Calm -- 29.91 in1012.9 mb 0.00 in0.0 mm 0.00 in0.0 mm 0.00 in0.0 mm
07:08 AM 70.7°F21.5°C 70.7°F21.5°C 100% Calm Calm -- 29.91 in1012.9 mb 0.00 in0.0 mm 0.00 in0.0 mm 0.00 in0.0 mm
07:13 AM 70.7°F21.5°C 70.7°F21.5°C 100% Calm Calm -- 29.91 in1012.9 mb 0.00 in0.0 mm 0.00 in0.0 mm 0.00 in0.0 mm
07:18 AM 70.7°F21.5°C 70.7°F21.5°C 100% Calm Calm -- 29.94 in1013.9 mb 0.00 in0.0 mm 0.00 in0.0 mm 0.00 in0.0 mm
07:23 AM 70.7°F21.5°C 70.7°F21.5°C 100% Calm Calm -- 29.94 in1013.9 mb 0.00 in0.0 mm 0.00 in0.0 mm 0.00 in0.0 mm
07:28 AM 70.7°F21.5°C 70.7°F21.5°C 100% Calm Calm -- 29.94 in1013.9 mb 0.00 in0.0 mm 0.00 in0.0 mm 0.00 in0.0 mm
07:33 AM 70.7°F21.5°C 70.7°F21.5°C 100% Calm Calm -- 29.97 in1014.9 mb 0.00 in0.0 mm 0.00 in0.0 mm 0.00 in0.0 mm
07:38 AM 70.9°F21.6°C 70.9°F21.6°C 100% Calm Calm -- 29.97 in1014.9 mb 0.00 in0.0 mm 0.00 in0.0 mm 0.00 in0.0 mm
07:43 AM 70.9°F21.6°C 70.9°F21.6°C 100% Calm Calm -- 29.97 in1014.9 mb 0.00 in0.0 mm 0.00 in0.0 mm 0.00 in0.0 mm
07:48 AM 70.9°F21.6°C 70.9°F21.6°C 100% Calm Calm -- 29.97 in1014.9 mb 0.00 in0.0 mm 0.00 in0.0 mm 0.00 in0.0 mm
07:53 AM 71.1°F21.7°C 71.1°F21.7°C 100% Calm Calm -- 29.97 in1014.9 mb 0.00 in0.0 mm 0.00 in0.0 mm 0.00 in0.0 mm
07:59 AM 71.2°F21.8°C 71.2°F21.8°C 100% Calm Calm -- 29.97 in1014.9 mb 0.00 in0.0 mm 0.00 in0.0 mm 0.00 in0.0 mm
08:04 AM 71.2°F21.8°C 71.2°F21.8°C 100% Calm Calm -- 29.97 in1014.9 mb 0.00 in0.0 mm 0.00 in0.0 mm 0.00 in0.0 mm
08:09 AM 71.2°F21.8°C 71.2°F21.8°C 100% Calm Calm -- 29.97 in1014.9 mb 0.00 in0.0 mm 0.00 in0.0 mm 0.00 in0.0 mm
08:14 AM 71.1°F21.7°C 71.1°F21.7°C 100% Calm Calm -- 30.00 in1015.9 mb 0.00 in0.0 mm 0.00 in0.0 mm 0.00 in0.0 mm
08:19 AM 71.1°F21.7°C 71.1°F21.7°C 100% Calm Calm -- 30.00 in1015.9 mb 0.00 in0.0 mm 0.00 in0.0 mm 0.00 in0.0 mm
08:24 AM 70.9°F21.6°C 70.9°F21.6°C 100% Calm Calm -- 30.00 in1015.9 mb 0.00 in0.0 mm 0.00 in0.0 mm 0.00 in0.0 mm
08:29 AM 70.9°F21.6°C 70.9°F21.6°C 100% Calm Calm -- 30.00 in1015.9 mb 0.00 in0.0 mm 0.00 in0.0 mm 0.00 in0.0 mm
08:34 AM 70.7°F21.5°C 70.7°F21.5°C 100% Calm Calm -- 30.00 in1015.9 mb 0.00 in0.0 mm 0.00 in0.0 mm 0.00 in0.0 mm
08:40 AM 70.5°F21.4°C 70.5°F21.4°C 100% Calm Calm -- 30.00 in1015.9 mb 0.00 in0.0 mm 0.00 in0.0 mm 0.00 in0.0 mm
08:45 AM 70.3°F21.3°C 70.3°F21.3°C 100% Calm Calm -- 30.00 in1015.9 mb 0.00 in0.0 mm 0.00 in0.0 mm 0.00 in0.0 mm
08:51 AM 70.2°F21.2°C 70.2°F21.2°C 100% Calm Calm -- 30.00 in1015.9 mb 0.00 in0.0 mm 0.00 in0.0 mm 0.00 in0.0 mm
08:56 AM 70.3°F21.3°C 70.3°F21.3°C 100% Calm Calm -- 30.00 in1015.9 mb 0.00 in0.0 mm 0.00 in0.0 mm 0.00 in0.0 mm
09:01 AM 70.3°F21.3°C 70.3°F21.3°C 100% Calm Calm -- 30.00 in1015.9 mb 0.00 in0.0 mm 0.00 in0.0 mm 0.00 in0.0 mm
09:06 AM 70.3°F21.3°C 70.3°F21.3°C 100% Calm Calm -- 30.00 in1015.9 mb 0.00 in0.0 mm 0.00 in0.0 mm 0.00 in0.0 mm
09:11 AM 70.5°F21.4°C 70.5°F21.4°C 100% Calm Calm -- 30.00 in1015.9 mb 0.00 in0.0 mm 0.00 in0.0 mm 0.00 in0.0 mm
09:16 AM 70.5°F21.4°C 70.5°F21.4°C 100% Calm Calm -- 29.97 in1014.9 mb 0.00 in0.0 mm 0.00 in0.0 mm 0.00 in0.0 mm
09:21 AM 70.5°F21.4°C 70.5°F21.4°C 100% Calm Calm -- 29.97 in1014.9 mb 0.00 in0.0 mm 0.00 in0.0 mm 0.00 in0.0 mm
09:26 AM 70.5°F21.4°C 70.5°F21.4°C 100% Calm Calm -- 29.97 in1014.9 mb 0.00 in0.0 mm 0.00 in0.0 mm 0.00 in0.0 mm
09:32 AM 70.5°F21.4°C 70.5°F21.4°C 100% Calm Calm -- 29.97 in1014.9 mb 0.00 in0.0 mm 0.00 in0.0 mm 0.00 in0.0 mm
09:38 AM 70.3°F21.3°C 70.3°F21.3°C 100% Calm Calm -- 29.97 in1014.9 mb 0.00 in0.0 mm 0.00 in0.0 mm 0.00 in0.0 mm
09:42 AM 70.5°F21.4°C 70.5°F21.4°C 100% Calm Calm -- 29.97 in1014.9 mb 0.00 in0.0 mm 0.00 in0.0 mm 0.00 in0.0 mm
09:47 AM 70.5°F21.4°C 70.5°F21.4°C 100% Calm Calm -- 29.97 in1014.9 mb 0.00 in0.0 mm 0.00 in0.0 mm 0.00 in0.0 mm
09:53 AM 70.7°F21.5°C 70.7°F21.5°C 100% Calm Calm -- 29.97 in1014.9 mb 0.00 in0.0 mm 0.00 in0.0 mm 0.00 in0.0 mm
09:58 AM 70.7°F21.5°C 70.7°F21.5°C 100% Calm Calm -- 29.97 in1014.9 mb 0.00 in0.0 mm 0.00 in0.0 mm 0.00 in0.0 mm
10:04 AM 71.2°F21.8°C 71.2°F21.8°C 100% Calm Calm -- 29.97 in1014.9 mb 0.00 in0.0 mm 0.00 in0.0 mm 0.00 in0.0 mm
10:09 AM 71.8°F22.1°C 71.8°F22.1°C 100% Calm Calm -- 29.97 in1014.9 mb 0.00 in0.0 mm 0.00 in0.0 mm 0.00 in0.0 mm
10:14 AM 71.8°F22.1°C 71.8°F22.1°C 100% Calm Calm -- 30.00 in1015.9 mb 0.00 in0.0 mm 0.00 in0.0 mm 0.00 in0.0 mm
10:19 AM 71.6°F22.0°C 71.6°F22.0°C 100% Calm Calm -- 30.00 in1015.9 mb 0.00 in0.0 mm 0.00 in0.0 mm 0.00 in0.0 mm
10:24 AM 71.4°F21.9°C 71.4°F21.9°C 100% Calm Calm -- 30.00 in1015.9 mb 0.00 in0.0 mm 0.00 in0.0 mm 0.00 in0.0 mm
10:29 AM 71.4°F21.9°C 71.4°F21.9°C 100% Calm Calm -- 30.00 in1015.9 mb 0.00 in0.0 mm 0.00 in0.0 mm 0.00 in0.0 mm
10:35 AM 71.4°F21.9°C 71.4°F21.9°C 100% Calm Calm -- 30.00 in1015.9 mb 0.00 in0.0 mm 0.00 in0.0 mm 0.00 in0.0 mm
10:40 AM 71.4°F21.9°C 71.4°F21.9°C 100% Calm Calm -- 30.00 in1015.9 mb 0.00 in0.0 mm 0.00 in0.0 mm 0.00 in0.0 mm
10:47 AM 71.6°F22.0°C 71.6°F22.0°C 100% Calm Calm -- 30.00 in1015.9 mb 0.00 in0.0 mm 0.00 in0.0 mm 0.00 in0.0 mm
10:52 AM 71.6°F22.0°C 71.6°F22.0°C 100% Calm Calm -- 30.00 in1015.9 mb 0.00 in0.0 mm 0.00 in0.0 mm 0.00 in0.0 mm
10:57 AM 71.6°F22.0°C 71.6°F22.0°C 100% Calm Calm -- 30.00 in1015.9 mb 0.00 in0.0 mm 0.00 in0.0 mm 0.00 in0.0 mm
11:02 AM 72.0°F22.2°C 72.0°F22.2°C 100% Calm Calm -- 30.00 in1015.9 mb 0.00 in0.0 mm 0.00 in0.0 mm 0.00 in0.0 mm
11:07 AM 72.9°F22.7°C 72.9°F22.7°C 100% Calm Calm -- 30.00 in1015.9 mb 0.00 in0.0 mm 0.00 in0.0 mm 0.00 in0.0 mm
11:12 AM 73.8°F23.2°C 73.8°F23.2°C 100% Calm Calm -- 30.00 in1015.9 mb 0.00 in0.0 mm 0.00 in0.0 mm 0.00 in0.0 mm
11:18 AM 73.8°F23.2°C 73.8°F23.2°C 100% Calm Calm -- 30.00 in1015.9 mb 0.00 in0.0 mm 0.00 in0.0 mm 0.00 in0.0 mm
11:23 AM 73.8°F23.2°C 73.8°F23.2°C 100% Calm Calm -- 30.00 in1015.9 mb 0.00 in0.0 mm 0.00 in0.0 mm 0.00 in0.0 mm
11:28 AM 73.8°F23.2°C 73.8°F23.2°C 100% Calm Calm -- 30.00 in1015.9 mb 0.00 in0.0 mm 0.00 in0.0 mm 0.00 in0.0 mm
11:33 AM 73.8°F23.2°C 73.8°F23.2°C 100% Calm Calm -- 30.00 in1015.9 mb 0.00 in0.0 mm 0.00 in0.0 mm 0.00 in0.0 mm
11:39 AM 73.9°F23.3°C 73.9°F23.3°C 100% Calm Calm -- 30.00 in1015.9 mb 0.00 in0.0 mm 0.00 in0.0 mm 0.00 in0.0 mm
11:43 AM 74.1°F23.4°C 74.1°F23.4°C 100% Calm Calm -- 30.00 in1015.9 mb 0.00 in0.0 mm 0.00 in0.0 mm 0.00 in0.0 mm
11:49 AM 74.1°F23.4°C 74.1°F23.4°C 100% Calm Calm -- 30.00 in1015.9 mb 0.00 in0.0 mm 0.00 in0.0 mm 0.00 in0.0 mm
11:54 AM 74.1°F23.4°C 74.1°F23.4°C 100% Calm Calm -- 30.00 in1015.9 mb 0.00 in0.0 mm 0.00 in0.0 mm 0.00 in0.0 mm
11:59 AM 74.7°F23.7°C 74.7°F23.7°C 100% Calm Calm -- 30.00 in1015.9 mb 0.00 in0.0 mm 0.00 in0.0 mm 0.00 in0.0 mm
12:04 PM 76.5°F24.7°C 76.5°F24.7°C 100% Calm Calm -- 30.00 in1015.9 mb 0.00 in0.0 mm 0.00 in0.0 mm 0.00 in0.0 mm
12:10 PM 77.0°F25.0°C 76.3°F24.6°C 98% Calm Calm -- 30.00 in1015.9 mb 0.00 in0.0 mm 0.00 in0.0 mm 0.00 in0.0 mm
12:15 PM 77.0°F25.0°C 76.3°F24.6°C 98% Calm Calm -- 30.00 in1015.9 mb 0.00 in0.0 mm 0.00 in0.0 mm 0.00 in0.0 mm
12:20 PM 76.5°F24.7°C 75.5°F24.2°C 97% Calm Calm -- 30.00 in1015.9 mb 0.00 in0.0 mm 0.00 in0.0 mm 0.00 in0.0 mm
12:25 PM 76.5°F24.7°C 75.5°F24.2°C 97% Calm Calm -- 30.00 in1015.9 mb 0.00 in0.0 mm 0.00 in0.0 mm 0.00 in0.0 mm
12:30 PM 76.8°F24.9°C 75.8°F24.3°C 97% Calm Calm -- 30.00 in1015.9 mb 0.00 in0.0 mm 0.00 in0.0 mm 0.00 in0.0 mm
12:35 PM 76.3°F24.6°C 75.3°F24.1°C 97% Calm Calm -- 30.00 in1015.9 mb 0.00 in0.0 mm 0.00 in0.0 mm 0.00 in0.0 mm
12:41 PM 75.9°F24.4°C 74.9°F23.8°C 97% Calm Calm -- 30.00 in1015.9 mb 0.00 in0.0 mm 0.00 in0.0 mm 0.00 in0.0 mm
12:46 PM 76.1°F24.5°C 75.1°F23.9°C 97% Calm Calm -- 29.97 in1014.9 mb 0.00 in0.0 mm 0.00 in0.0 mm 0.00 in0.0 mm
12:51 PM 76.5°F24.7°C 75.5°F24.2°C 97% Calm Calm -- 29.97 in1014.9 mb 0.00 in0.0 mm 0.00 in0.0 mm 0.00 in0.0 mm
12:56 PM 77.9°F25.5°C 76.5°F24.7°C 96% Calm Calm -- 29.97 in1014.9 mb 0.00 in0.0 mm 0.00 in0.0 mm 0.00 in0.0 mm
01:01 PM 77.7°F25.4°C 76.0°F24.4°C 95% Calm Calm -- 29.97 in1014.9 mb 0.00 in0.0 mm 0.00 in0.0 mm 0.00 in0.0 mm
01:06 PM 77.7°F25.4°C 76.0°F24.4°C 95% Calm Calm -- 29.97 in1014.9 mb 0.00 in0.0 mm 0.00 in0.0 mm 0.00 in0.0 mm
01:11 PM 78.1°F25.6°C 76.4°F24.7°C 95% Calm Calm -- 29.97 in1014.9 mb 0.00 in0.0 mm 0.00 in0.0 mm 0.00 in0.0 mm
01:16 PM 78.3°F25.7°C 76.2°F24.6°C 94% Calm Calm -- 29.97 in1014.9 mb 0.00 in0.0 mm 0.00 in0.0 mm 0.00 in0.0 mm
01:21 PM 78.8°F26.0°C 76.4°F24.7°C 92% Calm Calm -- 29.97 in1014.9 mb 0.00 in0.0 mm 0.00 in0.0 mm 0.00 in0.0 mm
01:26 PM 79.0°F26.1°C 76.2°F24.6°C 91% Calm Calm -- 29.97 in1014.9 mb 0.00 in0.0 mm 0.00 in0.0 mm 0.00 in0.0 mm
01:33 PM 79.3°F26.3°C 76.2°F24.6°C 90% Calm Calm -- 29.94 in1013.9 mb 0.00 in0.0 mm 0.00 in0.0 mm 0.00 in0.0 mm
01:38 PM 79.7°F26.5°C 76.2°F24.6°C 89% Calm Calm -- 29.94 in1013.9 mb 0.00 in0.0 mm 0.00 in0.0 mm 0.00 in0.0 mm
01:43 PM 79.7°F26.5°C 76.2°F24.6°C 89% Calm Calm -- 29.94 in1013.9 mb 0.00 in0.0 mm 0.00 in0.0 mm 0.00 in0.0 mm
01:48 PM 80.2°F26.8°C 76.0°F24.4°C 87% Calm Calm -- 29.94 in1013.9 mb 0.00 in0.0 mm 0.00 in0.0 mm 0.00 in0.0 mm
01:53 PM 80.6°F27.0°C 76.4°F24.7°C 87% Calm Calm -- 29.94 in1013.9 mb 0.00 in0.0 mm 0.00 in0.0 mm 0.00 in0.0 mm
01:59 PM 80.6°F27.0°C 76.0°F24.4°C 86% Calm Calm -- 29.94 in1013.9 mb 0.00 in0.0 mm 0.00 in0.0 mm 0.00 in0.0 mm
02:03 PM 80.4°F26.9°C 75.8°F24.3°C 86% Calm Calm -- 29.94 in1013.9 mb 0.00 in0.0 mm 0.00 in0.0 mm 0.00 in0.0 mm
02:09 PM 80.2°F26.8°C 75.2°F24.0°C 85% Calm Calm -- 29.94 in1013.9 mb 0.00 in0.0 mm 0.00 in0.0 mm 0.00 in0.0 mm
02:14 PM 80.2°F26.8°C 75.2°F24.0°C 85% Calm Calm -- 29.94 in1013.9 mb 0.00 in0.0 mm 0.00 in0.0 mm 0.00 in0.0 mm
02:19 PM 80.2°F26.8°C 75.2°F24.0°C 85% Calm Calm -- 29.94 in1013.9 mb 0.00 in0.0 mm 0.00 in0.0 mm 0.00 in0.0 mm
02:24 PM 79.7°F26.5°C 75.1°F23.9°C 86% Calm Calm -- 29.94 in1013.9 mb 0.00 in0.0 mm 0.00 in0.0 mm 0.00 in0.0 mm
02:29 PM 80.1°F26.7°C 75.5°F24.2°C 86% Calm Calm -- 29.94 in1013.9 mb 0.00 in0.0 mm 0.00 in0.0 mm 0.00 in0.0 mm
02:34 PM 81.0°F27.2°C 76.4°F24.7°C 86% Calm Calm -- 29.94 in1013.9 mb 0.00 in0.0 mm 0.00 in0.0 mm 0.00 in0.0 mm
02:39 PM 81.7°F27.6°C 76.3°F24.6°C 84% Calm Calm -- 29.94 in1013.9 mb 0.00 in0.0 mm 0.00 in0.0 mm 0.00 in0.0 mm
02:45 PM 81.9°F27.7°C 76.1°F24.5°C 83% Calm Calm -- 29.94 in1013.9 mb 0.00 in0.0 mm 0.00 in0.0 mm 0.00 in0.0 mm
02:50 PM 81.1°F27.3°C 75.0°F23.9°C 81% Calm Calm -- 29.94 in1013.9 mb 0.00 in0.0 mm 0.00 in0.0 mm 0.00 in0.0 mm
02:55 PM 81.3°F27.4°C 75.2°F24.0°C 81% Calm Calm -- 29.94 in1013.9 mb 0.00 in0.0 mm 0.00 in0.0 mm 0.00 in0.0 mm
03:00 PM 81.3°F27.4°C 75.2°F24.0°C 81% Calm Calm -- 29.91 in1012.9 mb 0.00 in0.0 mm 0.00 in0.0 mm 0.00 in0.0 mm
03:05 PM 81.9°F27.7°C 75.4°F24.1°C 80% Calm Calm -- 29.91 in1012.9 mb 0.00 in0.0 mm 0.00 in0.0 mm 0.00 in0.0 mm
03:10 PM 83.1°F28.4°C 76.9°F24.9°C 81% Calm Calm -- 29.91 in1012.9 mb 0.00 in0.0 mm 0.00 in0.0 mm 0.00 in0.0 mm
03:15 PM 83.7°F28.7°C 76.7°F24.8°C 79% Calm Calm -- 29.91 in1012.9 mb 0.00 in0.0 mm 0.00 in0.0 mm 0.00 in0.0 mm
03:20 PM 86.0°F30.0°C 78.1°F25.6°C 77% Calm Calm -- 29.91 in1012.9 mb 0.00 in0.0 mm 0.00 in0.0 mm 0.00 in0.0 mm
03:25 PM 86.4°F30.2°C 77.7°F25.4°C 75% Calm Calm -- 29.91 in1012.9 mb 0.00 in0.0 mm 0.00 in0.0 mm 0.00 in0.0 mm
03:30 PM 85.3°F29.6°C 76.2°F24.6°C 74% Calm Calm -- 29.94 in1013.9 mb 0.00 in0.0 mm 0.00 in0.0 mm 0.00 in0.0 mm
03:35 PM 84.9°F29.4°C 75.8°F24.3°C 74% Calm Calm -- 29.94 in1013.9 mb 0.00 in0.0 mm 0.00 in0.0 mm 0.00 in0.0 mm
03:41 PM 84.7°F29.3°C 75.6°F24.2°C 74% Calm Calm -- 29.94 in1013.9 mb 0.00 in0.0 mm 0.00 in0.0 mm 0.00 in0.0 mm
03:45 PM 83.8°F28.8°C 74.7°F23.7°C 74% Calm Calm -- 29.94 in1013.9 mb 0.00 in0.0 mm 0.00 in0.0 mm 0.00 in0.0 mm
03:50 PM 82.6°F28.1°C 74.0°F23.3°C 75% Calm Calm -- 29.94 in1013.9 mb 0.00 in0.0 mm 0.00 in0.0 mm 0.00 in0.0 mm
03:56 PM 81.0°F27.2°C 73.3°F22.9°C 77% Calm Calm -- 29.94 in1013.9 mb 0.00 in0.0 mm 0.00 in0.0 mm 0.00 in0.0 mm
04:01 PM 78.4°F25.8°C 71.9°F22.2°C 80% Calm Calm -- 29.94 in1013.9 mb 0.00 in0.0 mm 0.00 in0.0 mm 0.00 in0.0 mm
04:06 PM 75.7°F24.3°C 71.2°F21.8°C 86% Calm Calm -- 29.94 in1013.9 mb 0.04 in1.0 mm 0.48 in12.2 mm 0.05 in1.3 mm
04:11 PM 74.1°F23.4°C 71.0°F21.7°C 90% Calm Calm -- 29.94 in1013.9 mb 0.04 in1.0 mm 0.00 in0.0 mm 0.05 in1.3 mm
04:17 PM 73.2°F22.9°C 71.5°F21.9°C 95% Calm Calm -- 29.91 in1012.9 mb 0.08 in2.0 mm 0.40 in10.2 mm 0.09 in2.3 mm
04:22 PM 73.4°F23.0°C 72.4°F22.4°C 97% Calm Calm -- 29.91 in1012.9 mb 0.08 in2.0 mm 0.00 in0.0 mm 0.09 in2.3 mm
04:27 PM 74.1°F23.4°C 73.4°F23.0°C 98% Calm Calm -- 29.91 in1012.9 mb 0.08 in2.0 mm 0.00 in0.0 mm 0.09 in2.3 mm
04:32 PM 75.6°F24.2°C 75.3°F24.1°C 99% Calm Calm -- 29.91 in1012.9 mb 0.08 in2.0 mm 0.00 in0.0 mm 0.09 in2.3 mm
04:37 PM 77.0°F25.0°C 76.7°F24.8°C 99% Calm Calm -- 29.91 in1012.9 mb 0.08 in2.0 mm 0.00 in0.0 mm 0.09 in2.3 mm
04:42 PM 78.4°F25.8°C 78.1°F25.6°C 99% Calm Calm -- 29.91 in1012.9 mb 0.08 in2.0 mm 0.00 in0.0 mm 0.09 in2.3 mm
04:47 PM 78.1°F25.6°C 77.4°F25.2°C 98% Calm Calm -- 29.91 in1012.9 mb 0.08 in2.0 mm 0.00 in0.0 mm 0.09 in2.3 mm
04:53 PM 78.1°F25.6°C 77.4°F25.2°C 98% Calm Calm -- 29.91 in1012.9 mb 0.08 in2.0 mm 0.00 in0.0 mm 0.09 in2.3 mm
04:58 PM 78.8°F26.0°C 78.1°F25.6°C 98% Calm Calm -- 29.91 in1012.9 mb 0.08 in2.0 mm 0.00 in0.0 mm 0.09 in2.3 mm
05:03 PM 79.3°F26.3°C 78.3°F25.7°C 97% Calm Calm -- 29.91 in1012.9 mb 0.00 in0.0 mm 0.00 in0.0 mm 0.09 in2.3 mm
05:08 PM 79.7°F26.5°C 78.7°F25.9°C 97% Calm Calm -- 29.91 in1012.9 mb 0.00 in0.0 mm 0.00 in0.0 mm 0.09 in2.3 mm
05:13 PM 80.1°F26.7°C 78.7°F25.9°C 96% Calm Calm -- 29.91 in1012.9 mb 0.00 in0.0 mm 0.00 in0.0 mm 0.09 in2.3 mm
05:18 PM 80.6°F27.0°C 79.2°F26.2°C 96% Calm Calm -- 29.91 in1012.9 mb 0.00 in0.0 mm 0.00 in0.0 mm 0.09 in2.3 mm
05:23 PM 80.6°F27.0°C 78.9°F26.1°C 95% Calm Calm -- 29.91 in1012.9 mb 0.00 in0.0 mm 0.00 in0.0 mm 0.09 in2.3 mm
05:28 PM 80.4°F26.9°C 78.3°F25.7°C 94% Calm Calm -- 29.91 in1012.9 mb 0.00 in0.0 mm 0.00 in0.0 mm 0.09 in2.3 mm
05:33 PM 80.1°F26.7°C 78.0°F25.6°C 94% Calm Calm -- 29.88 in1011.9 mb 0.00 in0.0 mm 0.00 in0.0 mm 0.09 in2.3 mm
05:38 PM 80.2°F26.8°C 78.5°F25.8°C 95% Calm Calm -- 29.88 in1011.9 mb 0.00 in0.0 mm 0.00 in0.0 mm 0.09 in2.3 mm
05:43 PM 79.9°F26.6°C 77.8°F25.4°C 94% Calm Calm -- 29.88 in1011.9 mb 0.00 in0.0 mm 0.00 in0.0 mm 0.09 in2.3 mm
05:48 PM 79.0°F26.1°C 76.9°F24.9°C 94% Calm Calm -- 29.91 in1012.9 mb 0.00 in0.0 mm 0.00 in0.0 mm 0.09 in2.3 mm
05:53 PM 78.3°F25.7°C 76.2°F24.6°C 94% Calm Calm -- 29.91 in1012.9 mb 0.00 in0.0 mm 0.00 in0.0 mm 0.09 in2.3 mm
05:58 PM 77.9°F25.5°C 76.2°F24.6°C 95% Calm Calm -- 29.91 in1012.9 mb 0.00 in0.0 mm 0.00 in0.0 mm 0.09 in2.3 mm
06:03 PM 78.1°F25.6°C 76.7°F24.8°C 96% Calm Calm -- 29.88 in1011.9 mb 0.00 in0.0 mm 0.00 in0.0 mm 0.09 in2.3 mm
06:08 PM 78.3°F25.7°C 76.9°F24.9°C 96% Calm Calm -- 29.88 in1011.9 mb 0.00 in0.0 mm 0.00 in0.0 mm 0.09 in2.3 mm
06:13 PM 78.6°F25.9°C 77.2°F25.1°C 96% Calm Calm -- 29.88 in1011.9 mb 0.00 in0.0 mm 0.00 in0.0 mm 0.09 in2.3 mm
06:18 PM 78.6°F25.9°C 76.9°F24.9°C 95% Calm Calm -- 29.88 in1011.9 mb 0.00 in0.0 mm 0.00 in0.0 mm 0.09 in2.3 mm
06:23 PM 78.3°F25.7°C 76.6°F24.8°C 95% Calm Calm -- 29.88 in1011.9 mb 0.00 in0.0 mm 0.00 in0.0 mm 0.09 in2.3 mm
06:29 PM 78.1°F25.6°C 76.4°F24.7°C 95% Calm Calm -- 29.88 in1011.9 mb 0.00 in0.0 mm 0.00 in0.0 mm 0.09 in2.3 mm
06:34 PM 77.9°F25.5°C 76.5°F24.7°C 96% Calm Calm -- 29.88 in1011.9 mb 0.00 in0.0 mm 0.00 in0.0 mm 0.09 in2.3 mm
06:39 PM 77.7°F25.4°C 76.3°F24.6°C 96% Calm Calm -- 29.88 in1011.9 mb 0.00 in0.0 mm 0.00 in0.0 mm 0.09 in2.3 mm
06:44 PM 77.4°F25.2°C 76.0°F24.4°C 96% Calm Calm -- 29.88 in1011.9 mb 0.00 in0.0 mm 0.00 in0.0 mm 0.09 in2.3 mm
06:49 PM 77.0°F25.0°C 75.7°F24.3°C 96% Calm Calm -- 29.88 in1011.9 mb 0.00 in0.0 mm 0.00 in0.0 mm 0.09 in2.3 mm
06:54 PM 77.0°F25.0°C 76.0°F24.4°C 97% Calm Calm -- 29.88 in1011.9 mb 0.00 in0.0 mm 0.00 in0.0 mm 0.09 in2.3 mm
06:59 PM 77.4°F25.2°C 76.7°F24.8°C 98% Calm Calm -- 29.85 in1010.8 mb 0.00 in0.0 mm 0.00 in0.0 mm 0.09 in2.3 mm
07:04 PM 77.7°F25.4°C 77.0°F25.0°C 98% Calm Calm -- 29.85 in1010.8 mb 0.00 in0.0 mm 0.00 in0.0 mm 0.09 in2.3 mm
07:09 PM 77.9°F25.5°C 77.2°F25.1°C 98% Calm Calm -- 29.85 in1010.8 mb 0.00 in0.0 mm 0.00 in0.0 mm 0.09 in2.3 mm
07:14 PM 77.9°F25.5°C 76.9°F24.9°C 97% Calm Calm -- 29.88 in1011.9 mb 0.00 in0.0 mm 0.00 in0.0 mm 0.09 in2.3 mm
07:19 PM 77.7°F25.4°C 76.7°F24.8°C 97% Calm Calm -- 29.88 in1011.9 mb 0.00 in0.0 mm 0.00 in0.0 mm 0.09 in2.3 mm
07:24 PM 77.5°F25.3°C 75.8°F24.3°C 95% Calm Calm -- 29.88 in1011.9 mb 0.00 in0.0 mm 0.00 in0.0 mm 0.09 in2.3 mm
07:30 PM 77.4°F25.2°C 75.4°F24.1°C 94% Calm Calm -- 29.91 in1012.9 mb 0.00 in0.0 mm 0.00 in0.0 mm 0.09 in2.3 mm
07:35 PM 77.2°F25.1°C 75.2°F24.0°C 94% Calm Calm -- 29.91 in1012.9 mb 0.00 in0.0 mm 0.00 in0.0 mm 0.09 in2.3 mm
07:40 PM 76.8°F24.9°C 75.1°F23.9°C 95% Calm Calm -- 29.91 in1012.9 mb 0.00 in0.0 mm 0.00 in0.0 mm 0.09 in2.3 mm
07:45 PM 76.6°F24.8°C 74.9°F23.8°C 95% Calm Calm -- 29.91 in1012.9 mb 0.00 in0.0 mm 0.00 in0.0 mm 0.09 in2.3 mm
07:50 PM 75.6°F24.2°C 73.9°F23.3°C 95% Calm Calm -- 29.91 in1012.9 mb 0.00 in0.0 mm 0.00 in0.0 mm 0.09 in2.3 mm
07:55 PM 74.3°F23.5°C 73.0°F22.8°C 96% Calm Calm -- 29.91 in1012.9 mb 0.17 in4.3 mm 2.04 in51.8 mm 0.25 in6.4 mm
08:00 PM 72.3°F22.4°C 71.7°F22.1°C 98% Calm Calm -- 29.91 in1012.9 mb 0.04 in1.0 mm 0.00 in0.0 mm 0.46 in11.7 mm
08:05 PM 71.1°F21.7°C 70.8°F21.6°C 99% Calm Calm -- 29.91 in1012.9 mb 0.25 in6.4 mm 2.52 in64.0 mm 0.67 in17.0 mm
08:10 PM 70.3°F21.3°C 70.3°F21.3°C 100% Calm Calm -- 29.91 in1012.9 mb 0.37 in9.4 mm 1.44 in36.6 mm 0.79 in20.1 mm
08:15 PM 69.8°F21.0°C 69.8°F21.0°C 100% Calm Calm -- 29.94 in1013.9 mb 0.50 in12.7 mm 1.56 in39.6 mm 0.92 in23.4 mm
08:20 PM 69.3°F20.7°C 69.3°F20.7°C 100% Calm Calm -- 29.94 in1013.9 mb 0.70 in17.8 mm 2.40 in61.0 mm 1.12 in28.4 mm
08:25 PM 68.9°F20.5°C 68.9°F20.5°C 100% Calm Calm -- 29.94 in1013.9 mb 0.83 in21.1 mm 1.56 in39.6 mm 1.25 in31.8 mm
08:30 PM 68.7°F20.4°C 68.7°F20.4°C 100% Calm Calm -- 29.94 in1013.9 mb 0.95 in24.1 mm 1.44 in36.6 mm 1.37 in34.8 mm
08:35 PM 68.5°F20.3°C 68.5°F20.3°C 100% Calm Calm -- 29.94 in1013.9 mb 1.04 in26.4 mm 1.08 in27.4 mm 1.46 in37.1 mm
08:40 PM 68.5°F20.3°C 68.5°F20.3°C 100% Calm Calm -- 29.94 in1013.9 mb 1.12 in28.4 mm 0.96 in24.4 mm 1.54 in39.1 mm
08:45 PM 68.5°F20.3°C 68.5°F20.3°C 100% Calm Calm -- 29.94 in1013.9 mb 1.24 in31.5 mm 1.44 in36.6 mm 1.66 in42.2 mm
08:50 PM 68.5°F20.3°C 68.5°F20.3°C 100% Calm Calm -- 29.94 in1013.9 mb 1.33 in33.8 mm 1.08 in27.4 mm 1.75 in44.5 mm
08:56 PM 68.5°F20.3°C 68.5°F20.3°C 100% Calm Calm -- 29.94 in1013.9 mb 1.41 in35.8 mm 0.80 in20.3 mm 1.79 in45.5 mm
09:00 PM 68.7°F20.4°C 68.7°F20.4°C 100% Calm Calm -- 29.91 in1012.9 mb 0.00 in0.0 mm 0.00 in0.0 mm 1.83 in46.5 mm
09:06 PM 68.7°F20.4°C 68.7°F20.4°C 100% Calm Calm -- 29.91 in1012.9 mb 0.00 in0.0 mm 0.00 in0.0 mm 1.83 in46.5 mm
09:10 PM 68.7°F20.4°C 68.7°F20.4°C 100% Calm Calm -- 29.91 in1012.9 mb 0.00 in0.0 mm 0.00 in0.0 mm 1.83 in46.5 mm
09:16 PM 68.9°F20.5°C 68.9°F20.5°C 100% Calm Calm -- 29.91 in1012.9 mb 0.00 in0.0 mm 0.00 in0.0 mm 1.83 in46.5 mm
09:21 PM 68.9°F20.5°C 68.9°F20.5°C 100% Calm Calm -- 29.91 in1012.9 mb 0.00 in0.0 mm 0.00 in0.0 mm 1.83 in46.5 mm
09:26 PM 68.9°F20.5°C 68.9°F20.5°C 100% Calm Calm -- 29.91 in1012.9 mb 0.00 in0.0 mm 0.00 in0.0 mm 1.83 in46.5 mm
09:30 PM 68.9°F20.5°C 68.9°F20.5°C 100% Calm Calm -- 29.91 in1012.9 mb 0.00 in0.0 mm 0.00 in0.0 mm 1.83 in46.5 mm
09:35 PM 69.1°F20.6°C 69.1°F20.6°C 100% Calm Calm -- 29.91 in1012.9 mb 0.00 in0.0 mm 0.00 in0.0 mm 1.83 in46.5 mm
09:41 PM 69.1°F20.6°C 69.1°F20.6°C 100% Calm Calm -- 29.91 in1012.9 mb 0.00 in0.0 mm 0.00 in0.0 mm 1.83 in46.5 mm
09:46 PM 69.1°F20.6°C 69.1°F20.6°C 100% Calm Calm -- 29.94 in1013.9 mb 0.00 in0.0 mm 0.00 in0.0 mm 1.83 in46.5 mm
09:51 PM 69.3°F20.7°C 69.3°F20.7°C 100% Calm Calm -- 29.94 in1013.9 mb 0.00 in0.0 mm 0.00 in0.0 mm 1.83 in46.5 mm
09:56 PM 69.3°F20.7°C 69.3°F20.7°C 100% Calm Calm -- 29.94 in1013.9 mb 0.00 in0.0 mm 0.00 in0.0 mm 1.83 in46.5 mm
10:01 PM 69.3°F20.7°C 69.3°F20.7°C 100% Calm Calm -- 29.94 in1013.9 mb 0.00 in0.0 mm 0.00 in0.0 mm 1.83 in46.5 mm
10:06 PM 69.4°F20.8°C 69.4°F20.8°C 100% Calm Calm -- 29.94 in1013.9 mb 0.00 in0.0 mm 0.00 in0.0 mm 1.83 in46.5 mm
10:11 PM 69.4°F20.8°C 69.4°F20.8°C 100% Calm Calm -- 29.94 in1013.9 mb 0.00 in0.0 mm 0.00 in0.0 mm 1.83 in46.5 mm
10:16 PM 69.4°F20.8°C 69.4°F20.8°C 100% Calm Calm -- 29.94 in1013.9 mb 0.00 in0.0 mm 0.00 in0.0 mm 1.83 in46.5 mm
10:21 PM 69.6°F20.9°C 69.6°F20.9°C 100% Calm Calm -- 29.94 in1013.9 mb 0.00 in0.0 mm 0.00 in0.0 mm 1.83 in46.5 mm
10:26 PM 69.6°F20.9°C 69.6°F20.9°C 100% Calm Calm -- 29.94 in1013.9 mb 0.00 in0.0 mm 0.00 in0.0 mm 1.83 in46.5 mm
10:31 PM 69.6°F20.9°C 69.6°F20.9°C 100% Calm Calm -- 29.91 in1012.9 mb 0.00 in0.0 mm 0.00 in0.0 mm 1.83 in46.5 mm
10:36 PM 69.6°F20.9°C 69.6°F20.9°C 100% Calm Calm -- 29.91 in1012.9 mb 0.00 in0.0 mm 0.00 in0.0 mm 1.83 in46.5 mm
10:41 PM 69.8°F21.0°C 69.8°F21.0°C 100% Calm Calm -- 29.91 in1012.9 mb 0.00 in0.0 mm 0.00 in0.0 mm 1.83 in46.5 mm
10:46 PM 69.8°F21.0°C 69.8°F21.0°C 100% Calm Calm -- 29.94 in1013.9 mb 0.00 in0.0 mm 0.00 in0.0 mm 1.83 in46.5 mm
10:51 PM 69.8°F21.0°C 69.8°F21.0°C 100% Calm Calm -- 29.94 in1013.9 mb 0.00 in0.0 mm 0.00 in0.0 mm 1.83 in46.5 mm
10:56 PM 69.8°F21.0°C 69.8°F21.0°C 100% Calm Calm -- 29.94 in1013.9 mb 0.00 in0.0 mm 0.00 in0.0 mm 1.83 in46.5 mm
11:01 PM 69.8°F21.0°C 69.8°F21.0°C 100% Calm Calm -- 29.94 in1013.9 mb 0.00 in0.0 mm 0.00 in0.0 mm 1.83 in46.5 mm
11:06 PM 69.8°F21.0°C 69.8°F21.0°C 100% Calm Calm -- 29.94 in1013.9 mb 0.00 in0.0 mm 0.00 in0.0 mm 1.83 in46.5 mm
11:11 PM 69.8°F21.0°C 69.8°F21.0°C 100% Calm Calm -- 29.94 in1013.9 mb 0.00 in0.0 mm 0.00 in0.0 mm 1.83 in46.5 mm
11:16 PM 69.6°F20.9°C 69.6°F20.9°C 100% Calm Calm -- 29.94 in1013.9 mb 0.00 in0.0 mm 0.00 in0.0 mm 1.83 in46.5 mm
11:21 PM 69.8°F21.0°C 69.8°F21.0°C 100% Calm Calm -- 29.94 in1013.9 mb 0.00 in0.0 mm 0.00 in0.0 mm 1.83 in46.5 mm
11:26 PM 69.8°F21.0°C 69.8°F21.0°C 100% Calm Calm -- 29.94 in1013.9 mb 0.00 in0.0 mm 0.00 in0.0 mm 1.83 in46.5 mm
11:32 PM 69.8°F21.0°C 69.8°F21.0°C 100% Calm Calm -- 29.94 in1013.9 mb 0.00 in0.0 mm 0.00 in0.0 mm 1.83 in46.5 mm
11:37 PM 69.8°F21.0°C 69.8°F21.0°C 100% Calm Calm -- 29.94 in1013.9 mb 0.00 in0.0 mm 0.00 in0.0 mm 1.83 in46.5 mm
11:42 PM 69.8°F21.0°C 69.8°F21.0°C 100% Calm Calm -- 29.94 in1013.9 mb 0.00 in0.0 mm 0.00 in0.0 mm 1.83 in46.5 mm
11:48 PM 69.8°F21.0°C 69.8°F21.0°C 100% Calm Calm -- 29.94 in1013.9 mb 0.00 in0.0 mm 0.00 in0.0 mm 1.83 in46.5 mm
11:53 PM 69.8°F21.0°C 69.8°F21.0°C 100% Calm Calm -- 29.94 in1013.9 mb 0.00 in0.0 mm 0.00 in0.0 mm 1.83 in46.5 mm
11:58 PM 69.8°F21.0°C 69.8°F21.0°C 100% Calm Calm -- 29.94 in1013.9 mb 0.00 in0.0 mm 0.00 in0.0 mm 1.83 in46.5 mm